Time;durP1;ratioP1;P1;durP2;ratioP2;P2;SDS_P1;SDS_P2;PMS_P1;PMS_P2;Temp;Humidity;BMP_temperature;BMP_pressure;BME280_temperature;BME280_humidity;BME280_pressure;Samples;Min_cycle;Max_cycle;Signal;HPM_P1;HPM_P2
2022/10/02 00:02:29;;;;;;;15.07;2.83;;;12.90;99.90;;;;;;4980564;28;20061;-59
2022/10/02 00:05:10;;;;;;;13.48;2.28;;;12.90;99.90;;;;;;5005712;28;20037;-59
2022/10/02 00:07:47;;;;;;;12.98;2.35;;;12.90;99.90;;;;;;5006591;28;20049;-58
2022/10/02 00:10:25;;;;;;;10.32;2.38;;;12.90;99.90;;;;;;5007260;28;20120;-59
2022/10/02 00:12:56;;;;;;;13.43;2.55;;;12.80;99.90;;;;;;5012290;28;20046;-58
2022/10/02 00:15:26;;;;;;;13.07;3.45;;;12.80;99.90;;;;;;5003372;28;20077;-58
2022/10/02 00:17:56;;;;;;;9.70;2.50;;;12.80;99.90;;;;;;5000991;28;20109;-58
2022/10/02 00:20:32;;;;;;;11.57;2.10;;;12.80;99.90;;;;;;5002263;28;20124;-58
2022/10/02 00:23:08;;;;;;;13.70;3.15;;;12.80;99.90;;;;;;5005617;28;20057;-58
2022/10/02 00:25:52;;;;;;;11.88;2.05;;;12.80;99.90;;;;;;5023516;28;20041;-59
2022/10/02 00:28:45;;;;;;;9.98;1.80;;;12.80;99.90;;;;;;5005866;28;20501;-59
2022/10/02 00:31:31;;;;;;;11.93;2.20;;;12.80;99.90;;;;;;5018486;28;20057;-59
2022/10/02 00:34:18;;;;;;;15.23;2.00;;;12.70;99.90;;;;;;5002087;28;20037;-59
2022/10/02 00:36:56;;;;;;;13.60;2.65;;;12.80;99.90;;;;;;5002033;28;20041;-59
2022/10/02 00:39:22;;;;;;;13.63;2.50;;;12.70;99.90;;;;;;5014032;28;20135;-59
2022/10/02 00:42:21;;;;;;;13.57;4.05;;;12.70;99.90;;;;;;5004050;28;20069;-57
2022/10/02 00:44:57;;;;;;;10.52;2.20;;;12.70;99.90;;;;;;5007372;28;20061;-59
2022/10/02 00:47:46;;;;;;;14.68;2.72;;;12.70;99.90;;;;;;5004480;28;20064;-58
2022/10/02 00:50:41;;;;;;;8.10;2.28;;;12.70;99.90;;;;;;5011261;28;20057;-58
2022/10/02 00:53:13;;;;;;;10.93;2.55;;;12.70;99.90;;;;;;5003881;28;20124;-58
2022/10/02 00:55:50;;;;;;;17.70;3.53;;;12.70;99.90;;;;;;5007044;28;20145;-58
2022/10/02 00:58:43;;;;;;;12.82;2.33;;;12.70;99.90;;;;;;5014410;28;20681;-58
2022/10/02 01:01:18;;;;;;;8.18;2.10;;;12.70;99.90;;;;;;4989478;28;20041;-59
2022/10/02 01:03:52;;;;;;;15.45;3.45;;;12.70;99.90;;;;;;5003041;28;20164;-57
2022/10/02 01:06:18;;;;;;;16.20;3.30;;;12.70;99.90;;;;;;5003980;28;20046;-58
2022/10/02 01:08:45;;;;;;;16.48;2.70;;;12.70;99.90;;;;;;5006990;28;20420;-58
2022/10/02 01:11:12;;;;;;;13.23;2.47;;;12.70;99.90;;;;;;5012237;28;20056;-59
2022/10/02 01:13:38;;;;;;;13.48;3.47;;;12.70;99.90;;;;;;5010895;28;20383;-58
2022/10/02 01:16:13;;;;;;;13.48;2.20;;;12.70;99.90;;;;;;5012155;28;20125;-57
2022/10/02 01:18:40;;;;;;;11.80;2.50;;;12.70;99.90;;;;;;5012345;28;20045;-58
2022/10/02 01:21:34;;;;;;;12.80;2.60;;;12.70;99.90;;;;;;5009086;28;20493;-57
2022/10/02 01:24:09;;;;;;;15.32;2.75;;;12.70;99.90;;;;;;4984835;28;20063;-56
2022/10/02 01:26:34;;;;;;;16.10;3.03;;;12.70;99.90;;;;;;5011333;28;20048;-59
2022/10/02 01:29:00;;;;;;;12.98;2.60;;;12.60;99.90;;;;;;5006455;28;20409;-58
2022/10/02 01:31:26;;;;;;;17.67;2.85;;;12.60;99.90;;;;;;5006834;28;20045;-58
2022/10/02 01:33:52;;;;;;;12.63;2.35;;;12.60;99.90;;;;;;5005238;28;20041;-58
2022/10/02 01:36:19;;;;;;;9.02;2.25;;;12.60;99.90;;;;;;5011435;28;20400;-58
2022/10/02 01:38:47;;;;;;;13.52;2.47;;;12.60;99.90;;;;;;5000678;28;20050;-57
2022/10/02 01:41:12;;;;;;;10.32;2.13;;;12.60;99.90;;;;;;5007209;28;20497;-57
2022/10/02 01:43:46;;;;;;;9.13;2.30;;;12.60;99.90;;;;;;5005215;28;20049;-57
2022/10/02 01:46:17;;;;;;;17.33;2.80;;;12.60;99.90;;;;;;5003025;28;20042;-58
2022/10/02 01:49:07;;;;;;;12.70;3.22;;;12.60;99.90;;;;;;5008285;28;20041;-58
2022/10/02 01:51:47;;;;;;;10.40;2.53;;;12.60;99.90;;;;;;5007852;28;20049;-57
2022/10/02 01:54:56;;;;;;;8.85;2.00;;;12.60;99.90;;;;;;5005540;28;20041;-57
2022/10/02 01:57:40;;;;;;;12.40;2.85;;;12.50;99.90;;;;;;5003469;28;20668;-59
2022/10/02 02:00:24;;;;;;;21.00;2.45;;;12.50;99.90;;;;;;5006605;28;20048;-57
2022/10/02 02:03:05;;;;;;;14.65;2.70;;;12.50;99.90;;;;;;5010748;28;20042;-57
2022/10/02 02:05:49;;;;;;;16.98;3.35;;;12.50;99.90;;;;;;5007937;28;20053;-57
2022/10/02 02:08:36;;;;;;;11.02;1.75;;;12.50;99.90;;;;;;5007200;28;20531;-57
2022/10/02 02:11:14;;;;;;;11.43;2.28;;;12.50;99.90;;;;;;5008627;28;20544;-58
2022/10/02 02:13:48;;;;;;;14.52;2.38;;;12.50;99.90;;;;;;5001479;28;20076;-58
2022/10/02 02:16:20;;;;;;;15.13;2.90;;;12.50;99.90;;;;;;5005235;28;20283;-56
2022/10/02 02:18:56;;;;;;;11.35;2.35;;;12.50;99.90;;;;;;5009330;28;20521;-57
2022/10/02 02:21:31;;;;;;;12.07;3.25;;;12.40;99.90;;;;;;5015152;28;20125;-57
2022/10/02 02:24:01;;;;;;;17.55;2.90;;;12.40;99.90;;;;;;5008437;28;20045;-58
2022/10/02 02:26:28;;;;;;;8.48;1.65;;;12.40;99.90;;;;;;5010985;28;20484;-57
2022/10/02 02:29:00;;;;;;;14.02;2.15;;;12.40;99.90;;;;;;5015663;28;20456;-57
2022/10/02 02:31:36;;;;;;;15.75;2.95;;;12.40;99.90;;;;;;5018226;28;20088;-59
2022/10/02 02:34:06;;;;;;;11.23;2.17;;;12.40;99.90;;;;;;4988316;28;20178;-56
2022/10/02 02:36:37;;;;;;;12.38;2.85;;;12.40;99.90;;;;;;5005020;28;20042;-59
2022/10/02 02:39:13;;;;;;;11.27;2.67;;;12.40;99.90;;;;;;5008506;28;20087;-57
2022/10/02 02:41:51;;;;;;;13.75;2.20;;;12.50;99.90;;;;;;5004500;28;20049;-58
2022/10/02 02:44:28;;;;;;;17.95;3.05;;;12.50;99.90;;;;;;4994483;28;20094;-58
2022/10/02 02:47:05;;;;;;;18.90;2.63;;;12.50;99.90;;;;;;4999170;28;20045;-58
2022/10/02 02:49:48;;;;;;;15.90;2.83;;;12.50;99.90;;;;;;4990460;28;20038;-58
2022/10/02 02:52:29;;;;;;;12.82;2.67;;;12.50;99.90;;;;;;5012774;28;20489;-58
2022/10/02 02:55:08;;;;;;;17.42;2.25;;;12.60;99.90;;;;;;5010246;28;20030;-58
2022/10/02 02:57:42;;;;;;;13.13;2.28;;;12.60;99.90;;;;;;5005782;28;20559;-58
2022/10/02 03:00:08;;;;;;;13.57;3.15;;;12.50;99.90;;;;;;5010378;28;20042;-59
2022/10/02 03:02:33;;;;;;;19.40;2.75;;;12.50;99.90;;;;;;5014536;28;20071;-58
2022/10/02 03:04:59;;;;;;;14.23;2.50;;;12.60;99.90;;;;;;5008112;28;20038;-59
2022/10/02 03:07:25;;;;;;;16.85;2.30;;;12.60;99.90;;;;;;5002721;28;20540;-58
2022/10/02 03:10:13;;;;;;;15.35;2.20;;;12.60;99.90;;;;;;5019361;28;20240;-58
2022/10/02 03:13:29;;;;;;;18.05;2.88;;;12.60;99.90;;;;;;5009327;28;20125;-58
2022/10/02 03:15:58;;;;;;;8.80;2.20;;;12.60;99.90;;;;;;4954475;28;20129;-59
2022/10/02 03:19:18;;;;;;;12.98;2.83;;;12.60;99.90;;;;;;5004857;28;20034;-57
2022/10/02 03:21:46;;;;;;;11.15;2.40;;;12.50;99.90;;;;;;4967037;28;20035;-58
2022/10/02 03:24:58;;;;;;;13.70;3.10;;;12.50;99.90;;;;;;5005221;28;20456;-59
2022/10/02 03:27:30;;;;;;;15.35;2.88;;;12.50;99.90;;;;;;4901957;29;20913;-56
2022/10/02 03:30:01;;;;;;;15.82;3.30;;;12.50;99.90;;;;;;4930210;29;20810;-57
2022/10/02 03:32:28;;;;;;;13.95;2.30;;;12.50;99.90;;;;;;4951318;28;20081;-58
2022/10/02 03:34:56;;;;;;;13.40;2.53;;;12.50;99.90;;;;;;5006518;28;20038;-59
2022/10/02 03:37:24;;;;;;;13.00;2.45;;;12.50;99.90;;;;;;5011528;28;20404;-59
2022/10/02 03:39:51;;;;;;;14.18;2.40;;;12.40;99.90;;;;;;5004835;28;20040;-59
2022/10/02 03:42:23;;;;;;;14.70;3.85;;;12.40;99.90;;;;;;5007117;28;20353;-58
2022/10/02 03:44:49;;;;;;;21.48;3.50;;;12.40;99.90;;;;;;5011608;28;20431;-57
2022/10/02 03:47:15;;;;;;;14.75;3.15;;;12.40;99.90;;;;;;5007535;28;20040;-59
2022/10/02 03:49:41;;;;;;;8.60;2.70;;;12.30;99.90;;;;;;5003087;28;20053;-59
2022/10/02 03:52:12;;;;;;;15.73;2.65;;;12.30;99.90;;;;;;5028273;28;20045;-59
2022/10/02 03:54:38;;;;;;;18.35;2.70;;;12.30;99.90;;;;;;5005052;28;20038;-58
2022/10/02 03:57:07;;;;;;;18.23;2.33;;;12.30;99.90;;;;;;5020921;28;20037;-58
2022/10/02 03:59:52;;;;;;;14.75;2.80;;;12.30;99.90;;;;;;5003022;28;20053;-54
2022/10/02 04:02:36;;;;;;;13.80;2.33;;;12.30;99.90;;;;;;5008837;28;20040;-58
2022/10/02 04:05:36;;;;;;;16.52;2.95;;;12.20;99.90;;;;;;5005328;28;20042;-58
2022/10/02 04:08:19;;;;;;;15.25;2.58;;;12.20;99.90;;;;;;5007406;28;20299;-59
2022/10/02 04:11:12;;;;;;;12.85;2.95;;;12.20;99.90;;;;;;5006185;28;20053;-58
2022/10/02 04:13:45;;;;;;;18.23;3.33;;;12.20;99.90;;;;;;5030809;28;20500;-57
2022/10/02 04:16:32;;;;;;;19.30;3.23;;;12.20;99.90;;;;;;5017925;28;20493;-58
2022/10/02 04:19:13;;;;;;;17.88;2.47;;;12.20;99.90;;;;;;5001785;28;20144;-58
2022/10/02 04:21:50;;;;;;;13.48;2.67;;;12.20;99.90;;;;;;5007152;28;20034;-59
2022/10/02 04:24:15;;;;;;;14.63;3.05;;;12.20;99.90;;;;;;5006363;28;20042;-58
2022/10/02 04:26:58;;;;;;;13.27;2.22;;;12.20;99.90;;;;;;5010122;28;20399;-58
2022/10/02 04:29:30;;;;;;;16.80;3.53;;;12.20;99.90;;;;;;4995125;28;20248;-59
2022/10/02 04:32:10;;;;;;;18.77;3.30;;;12.20;99.90;;;;;;5003490;28;20041;-59
2022/10/02 04:34:36;;;;;;;14.25;3.83;;;12.20;99.90;;;;;;5006052;28;20100;-58
2022/10/02 04:37:14;;;;;;;15.98;2.83;;;12.20;99.90;;;;;;5012363;28;20080;-58
2022/10/02 04:39:40;;;;;;;19.13;3.20;;;12.10;99.90;;;;;;5003991;28;20034;-59
2022/10/02 04:42:31;;;;;;;17.15;3.10;;;12.10;99.90;;;;;;5026269;28;20042;-59
2022/10/02 04:45:00;;;;;;;24.38;2.88;;;12.10;99.90;;;;;;5003780;28;20261;-59
2022/10/02 04:47:35;;;;;;;16.58;3.40;;;12.10;99.90;;;;;;5023761;22;20459;-61
2022/10/02 04:50:16;;;;;;;20.73;3.40;;;12.10;99.90;;;;;;4996585;28;20053;-63
2022/10/02 04:53:15;;;;;;;11.98;2.50;;;12.10;99.90;;;;;;4984755;28;20041;-63
2022/10/02 04:55:49;;;;;;;13.98;2.42;;;12.10;99.90;;;;;;4982341;28;20038;-62
2022/10/02 04:58:36;;;;;;;12.75;2.53;;;12.10;99.90;;;;;;4988596;28;20461;-63
2022/10/02 05:01:31;;;;;;;11.30;2.67;;;12.10;99.90;;;;;;4983791;28;20039;-62
2022/10/02 05:04:22;;;;;;;13.38;2.95;;;12.10;99.90;;;;;;4992249;28;20415;-63
2022/10/02 05:07:18;;;;;;;11.73;3.38;;;12.00;99.90;;;;;;4989987;28;20441;-61
2022/10/02 05:10:03;;;;;;;17.02;2.85;;;12.00;99.90;;;;;;4991483;28;20042;-62
2022/10/02 05:12:42;;;;;;;14.85;3.22;;;11.90;99.90;;;;;;4994348;28;20531;-62
2022/10/02 05:15:08;;;;;;;15.18;2.90;;;11.90;99.90;;;;;;4952565;28;20030;-62
2022/10/02 05:17:56;;;;;;;21.05;3.20;;;11.90;99.90;;;;;;4974600;28;20161;-62
2022/10/02 05:20:41;;;;;;;19.10;3.00;;;11.80;99.90;;;;;;4958423;28;20046;-63
2022/10/02 05:23:16;;;;;;;20.60;3.83;;;11.80;99.90;;;;;;4987299;28;20042;-63
2022/10/02 05:26:08;;;;;;;19.95;2.95;;;11.70;99.90;;;;;;4984041;28;20054;-62
2022/10/02 05:28:58;;;;;;;13.27;3.28;;;11.70;99.90;;;;;;4986032;28;20121;-61
2022/10/02 05:31:30;;;;;;;18.35;3.20;;;11.70;99.90;;;;;;4992961;28;20449;-62
2022/10/02 05:34:10;;;;;;;18.52;3.17;;;11.70;99.90;;;;;;4976839;28;20031;-64
2022/10/02 05:37:05;;;;;;;20.50;3.13;;;11.60;99.90;;;;;;4983438;28;20585;-63
2022/10/02 05:39:41;;;;;;;20.35;3.28;;;11.60;99.90;;;;;;4964785;28;20478;-62
2022/10/02 05:42:34;;;;;;;17.95;2.83;;;11.60;99.90;;;;;;4976444;28;20065;-62
2022/10/02 05:45:04;;;;;;;16.30;2.92;;;11.60;99.90;;;;;;4986732;28;20061;-61
2022/10/02 05:47:37;;;;;;;20.75;3.33;;;11.60;99.90;;;;;;4982948;28;20044;-62
2022/10/02 05:50:16;;;;;;;16.10;2.60;;;11.60;99.90;;;;;;4967736;28;20045;-62
2022/10/02 05:52:49;;;;;;;17.67;2.88;;;11.60;99.90;;;;;;4968620;28;20081;-62
2022/10/02 05:55:36;;;;;;;23.23;3.95;;;11.60;99.90;;;;;;4986307;28;20374;-63
2022/10/02 05:58:24;;;;;;;19.73;3.83;;;11.60;99.90;;;;;;4983621;28;20509;-61
2022/10/02 06:01:10;;;;;;;14.75;2.50;;;11.60;99.90;;;;;;4992954;28;20053;-63
2022/10/02 06:04:06;;;;;;;22.20;3.00;;;11.60;99.90;;;;;;4969454;28;20520;-62
2022/10/02 06:06:45;;;;;;;18.42;3.33;;;11.60;99.90;;;;;;4972321;28;20081;-62
2022/10/02 06:09:13;;;;;;;15.38;2.75;;;11.60;99.90;;;;;;4970070;28;20469;-62
2022/10/02 06:11:47;;;;;;;15.75;3.38;;;11.60;99.90;;;;;;4976211;28;20390;-62
2022/10/02 06:14:19;;;;;;;21.42;3.85;;;11.70;99.90;;;;;;4984713;28;20034;-62
2022/10/02 06:16:59;;;;;;;15.70;3.72;;;11.70;99.90;;;;;;4981237;28;20057;-63
2022/10/02 06:19:41;;;;;;;16.33;2.78;;;11.80;99.90;;;;;;4978593;28;20055;-63
2022/10/02 06:22:17;;;;;;;16.95;3.13;;;11.90;99.90;;;;;;4964044;28;20113;-62
2022/10/02 06:25:05;;;;;;;15.90;3.85;;;12.00;99.90;;;;;;4969161;28;20366;-62
2022/10/02 06:28:12;;;;;;;16.25;2.65;;;12.20;99.90;;;;;;4993902;28;20445;-60
2022/10/02 06:30:42;;;;;;;16.30;2.58;;;12.30;99.90;;;;;;4956612;28;20086;-62
2022/10/02 06:33:16;;;;;;;12.45;2.95;;;12.50;99.90;;;;;;4964877;28;20035;-63
2022/10/02 06:36:10;;;;;;;17.50;2.88;;;12.70;99.90;;;;;;4969806;28;20053;-62
2022/10/02 06:38:56;;;;;;;10.50;2.67;;;12.80;99.90;;;;;;4989156;28;20053;-63
2022/10/02 06:41:53;;;;;;;20.80;3.42;;;12.80;99.90;;;;;;4981679;28;20088;-65
2022/10/02 06:45:13;;;;;;;11.23;2.67;;;12.80;99.90;;;;;;4974154;28;20428;-63
2022/10/02 06:47:49;;;;;;;11.10;2.58;;;12.70;99.90;;;;;;4896820;29;20051;-61
2022/10/02 06:50:18;;;;;;;13.43;2.47;;;12.70;99.90;;;;;;4943971;28;20054;-62
2022/10/02 06:53:03;;;;;;;13.85;2.72;;;12.70;99.90;;;;;;4981234;28;20057;-62
2022/10/02 06:55:53;;;;;;;14.13;2.90;;;12.70;99.90;;;;;;4969158;28;20089;-62
2022/10/02 06:58:25;;;;;;;9.38;2.53;;;12.70;99.90;;;;;;4995897;28;20512;-61
2022/10/02 07:01:03;;;;;;;12.63;2.08;;;12.70;99.90;;;;;;4983847;28;20038;-64
2022/10/02 07:03:50;;;;;;;10.50;2.53;;;12.70;99.90;;;;;;4984950;28;20114;-61
2022/10/02 07:06:38;;;;;;;13.18;2.30;;;12.80;99.90;;;;;;4953624;28;20129;-63
2022/10/02 07:09:28;;;;;;;9.75;2.22;;;12.80;99.90;;;;;;4980826;28;20132;-63
2022/10/02 07:12:08;;;;;;;11.52;3.17;;;12.80;99.90;;;;;;4974931;28;20034;-64
2022/10/02 07:14:49;;;;;;;9.60;2.00;;;12.90;99.90;;;;;;4983026;28;20034;-64
2022/10/02 07:17:32;;;;;;;7.82;2.28;;;12.90;99.90;;;;;;4972527;28;20116;-63
2022/10/02 07:20:22;;;;;;;10.63;2.80;;;13.00;99.90;;;;;;4944479;28;20046;-63
2022/10/02 07:23:12;;;;;;;15.65;2.70;;;13.10;99.90;;;;;;4956075;28;20041;-63
2022/10/02 07:26:03;;;;;;;10.30;2.50;;;13.10;99.90;;;;;;4969275;28;20046;-63
2022/10/02 07:28:43;;;;;;;11.38;2.58;;;13.10;99.90;;;;;;4979792;28;20073;-63
2022/10/02 07:31:32;;;;;;;10.60;2.45;;;13.20;99.90;;;;;;4966968;28;20142;-63
2022/10/02 07:34:11;;;;;;;11.32;2.13;;;13.20;99.90;;;;;;4973677;28;20084;-62
2022/10/02 07:37:20;;;;;;;13.52;2.53;;;13.20;99.90;;;;;;4986541;28;20049;-64
2022/10/02 07:39:56;;;;;;;13.05;2.80;;;13.20;99.90;;;;;;4925110;28;20401;-63
2022/10/02 07:42:40;;;;;;;16.38;3.45;;;13.40;99.90;;;;;;4972127;28;20050;-63
2022/10/02 07:45:25;;;;;;;11.80;2.80;;;13.60;99.90;;;;;;4984522;28;20043;-64
2022/10/02 07:48:11;;;;;;;17.55;3.28;;;13.80;99.90;;;;;;4990112;28;20129;-64
2022/10/02 07:50:56;;;;;;;19.02;2.90;;;14.00;99.90;;;;;;4985623;28;20049;-63
2022/10/02 07:53:37;;;;;;;;;;;14.10;99.90;;;;;;4965681;28;20050;-63
2022/10/02 07:56:09;;;;;;;16.95;3.15;;;14.10;99.90;;;;;;4982781;28;19917;-64
2022/10/02 07:58:43;;;;;;;15.70;3.72;;;14.10;99.90;;;;;;4985905;28;20065;-64
2022/10/02 08:01:17;;;;;;;16.73;4.15;;;14.10;99.90;;;;;;4990159;28;20187;-63
2022/10/02 08:04:04;;;;;;;16.63;3.13;;;14.00;99.90;;;;;;4983590;28;20264;-64
2022/10/02 08:06:31;;;;;;;14.07;3.03;;;13.90;99.90;;;;;;4982109;28;20108;-64
2022/10/02 08:09:14;;;;;;;14.98;2.85;;;13.90;99.90;;;;;;4967735;28;20034;-64
2022/10/02 08:12:14;;;;;;;17.17;7.00;;;13.90;99.90;;;;;;4970492;28;20038;-65
2022/10/02 08:14:44;;;;;;;12.68;4.47;;;13.90;99.90;;;;;;4953368;28;20518;-65
2022/10/02 08:17:29;;;;;;;14.02;4.20;;;13.90;99.90;;;;;;4989626;28;20030;-64
2022/10/02 08:20:26;;;;;;;10.63;3.10;;;14.00;99.90;;;;;;4982819;28;20165;-64
2022/10/02 08:23:16;;;;;;;17.13;4.90;;;14.00;99.90;;;;;;4979258;28;20149;-64
2022/10/02 08:25:51;;;;;;;15.82;3.45;;;14.10;99.90;;;;;;4940409;28;20086;-64
2022/10/02 08:28:35;;;;;;;15.73;3.53;;;14.40;99.90;;;;;;4984497;28;20034;-63
2022/10/02 08:31:04;;;;;;;14.88;3.47;;;14.40;99.90;;;;;;4980587;28;20042;-64
2022/10/02 08:33:31;;;;;;;14.43;3.22;;;14.60;99.90;;;;;;4985478;28;20576;-64
2022/10/02 08:36:17;;;;;;;14.10;2.78;;;14.60;99.90;;;;;;4984144;28;20105;-64
2022/10/02 08:38:48;;;;;;;11.20;2.70;;;14.60;99.90;;;;;;4969599;28;20042;-64
2022/10/02 08:41:45;;;;;;;8.77;2.17;;;14.60;99.90;;;;;;4983315;28;20049;-64
2022/10/02 08:44:44;;;;;;;14.93;2.70;;;14.90;99.90;;;;;;4988743;28;20049;-64
2022/10/02 08:47:50;;;;;;;10.68;2.75;;;14.90;99.90;;;;;;4966603;28;20046;-64
2022/10/02 08:50:47;;;;;;;13.30;2.78;;;15.20;99.90;;;;;;4979625;28;20051;-65
2022/10/02 08:53:39;;;;;;;16.75;2.75;;;15.40;99.90;;;;;;4964236;28;20121;-64
2022/10/02 08:56:33;;;;;;;16.02;3.15;;;15.50;99.90;;;;;;4942937;28;20042;-65
2022/10/02 08:59:37;;;;;;;13.30;2.75;;;15.40;99.90;;;;;;4968873;28;20493;-64
2022/10/02 09:02:25;;;;;;;17.92;3.85;;;15.30;99.90;;;;;;4981030;28;20041;-64
2022/10/02 09:04:59;;;;;;;16.33;4.28;;;15.10;99.90;;;;;;4985721;28;20404;-66
2022/10/02 09:07:56;;;;;;;17.35;3.65;;;15.10;99.90;;;;;;4969813;28;20046;-64
2022/10/02 09:10:50;;;;;;;15.10;3.40;;;15.10;99.90;;;;;;4986112;28;20050;-64
2022/10/02 09:13:41;;;;;;;18.58;3.75;;;15.00;99.90;;;;;;4983374;28;20030;-64
2022/10/02 09:16:08;;;;;;;18.35;3.58;;;15.00;99.90;;;;;;4979608;28;20520;-64
2022/10/02 09:19:01;;;;;;;15.50;3.88;;;15.10;99.90;;;;;;4969406;28;20085;-63
2022/10/02 09:21:54;;;;;;;18.85;4.00;;;15.30;99.90;;;;;;4980220;28;20054;-65
2022/10/02 09:24:42;;;;;;;14.68;2.90;;;15.40;99.90;;;;;;4968018;28;20052;-65
2022/10/02 09:27:22;;;;;;;12.23;3.42;;;15.70;99.90;;;;;;4971319;28;20075;-64
2022/10/02 09:30:38;;;;;;;16.30;3.55;;;15.90;99.90;;;;;;4995435;28;20049;-66
2022/10/02 09:33:45;;;;;;;20.40;3.50;;;15.90;99.90;;;;;;4922817;28;20051;-65
2022/10/02 09:36:29;;;;;;;22.55;4.88;;;16.00;99.90;;;;;;4951318;28;20046;-66
2022/10/02 09:39:16;;;;;;;13.68;4.93;;;16.10;99.90;;;;;;4986084;28;20085;-65
2022/10/02 09:42:06;;;;;;;16.40;3.10;;;16.30;99.90;;;;;;4990915;28;20034;-64
2022/10/02 09:44:43;;;;;;;13.55;3.00;;;16.40;99.90;;;;;;4988176;28;20038;-66
2022/10/02 09:47:48;;;;;;;13.00;3.38;;;16.30;99.90;;;;;;4971406;28;20132;-67
2022/10/02 09:50:23;;;;;;;12.05;3.58;;;16.20;99.90;;;;;;4974919;28;20057;-65
2022/10/02 09:53:29;;;;;;;15.82;4.03;;;16.00;99.90;;;;;;4973573;28;20046;-64
2022/10/02 09:56:22;;;;;;;16.80;3.08;;;15.80;99.90;;;;;;4985724;28;20130;-65
2022/10/02 09:59:12;;;;;;;14.48;2.80;;;15.70;99.90;;;;;;4986772;28;20050;-64
2022/10/02 10:02:19;;;;;;;16.33;3.17;;;15.60;99.90;;;;;;4993137;28;20402;-65
2022/10/02 10:04:51;;;;;;;12.05;2.75;;;15.40;99.90;;;;;;4974162;28;20050;-64
2022/10/02 10:07:37;;;;;;;15.82;3.40;;;15.40;99.90;;;;;;4969938;28;20115;-64
2022/10/02 10:10:30;;;;;;;15.25;3.50;;;15.30;99.90;;;;;;4954392;28;20054;-62
2022/10/02 10:13:02;;;;;;;15.63;3.17;;;15.20;99.90;;;;;;4982827;28;20056;-64
2022/10/02 10:16:14;;;;;;;13.80;3.55;;;15.20;99.90;;;;;;4984022;28;20129;-63
2022/10/02 10:19:01;;;;;;;13.73;2.65;;;15.20;99.90;;;;;;4974938;28;20479;-62
2022/10/02 10:21:44;;;;;;;14.90;4.43;;;15.40;99.90;;;;;;4989098;28;20501;-61
2022/10/02 10:24:34;;;;;;;15.27;3.13;;;16.00;99.90;;;;;;4987546;28;20114;-65
2022/10/02 10:27:03;;;;;;;15.70;3.05;;;16.30;99.90;;;;;;4970189;28;20042;-64
2022/10/02 10:30:07;;;;;;;17.17;3.03;;;16.40;99.90;;;;;;4969553;28;20096;-65
2022/10/02 10:33:20;;;;;;;11.85;2.60;;;16.10;99.90;;;;;;4986786;28;20413;-63
2022/10/02 10:38:31;;;;;;;13.82;2.60;;;15.90;99.90;;;;;;4963059;28;20061;-63
2022/10/02 10:39:28;;;;;;;13.15;2.97;;;15.80;99.90;;;;;;4984696;28;20042;-61
2022/10/02 10:42:13;;;;;;;18.77;3.92;;;16.00;99.90;;;;;;4969730;28;20042;-63
2022/10/02 10:45:06;;;;;;;17.08;3.17;;;16.30;99.90;;;;;;4989579;28;20097;-65
2022/10/02 10:48:08;;;;;;;14.68;2.70;;;16.50;99.90;;;;;;5014543;23;20448;-59
2022/10/02 10:51:13;;;;;;;13.85;3.25;;;16.70;99.90;;;;;;4997910;28;20046;-60
2022/10/02 10:53:42;;;;;;;17.63;3.63;;;16.60;99.90;;;;;;4992222;28;20057;-60
2022/10/02 10:56:16;;;;;;;12.00;2.47;;;16.60;99.90;;;;;;4992179;28;20056;-61
2022/10/02 10:59:11;;;;;;;12.65;3.10;;;16.80;99.90;;;;;;4990264;28;20054;-60
2022/10/02 11:01:39;;;;;;;12.05;3.30;;;16.90;99.90;;;;;;4990699;28;20105;-58
2022/10/02 11:04:41;;;;;;;13.25;3.13;;;16.90;99.90;;;;;;4991470;28;20046;-60
2022/10/02 11:07:19;;;;;;;11.70;2.50;;;17.10;99.90;;;;;;4991760;28;20065;-61
2022/10/02 11:10:06;;;;;;;15.73;2.97;;;17.10;99.90;;;;;;4991122;28;20079;-60
2022/10/02 11:12:41;;;;;;;12.00;2.65;;;17.30;99.90;;;;;;4990524;28;20105;-60
2022/10/02 11:15:50;;;;;;;15.20;2.70;;;17.40;99.90;;;;;;4991603;28;20073;-59
2022/10/02 11:18:22;;;;;;;11.25;2.65;;;17.20;99.90;;;;;;4974476;28;20508;-60
2022/10/02 11:21:19;;;;;;;11.30;2.60;;;17.30;99.90;;;;;;4993216;28;20056;-60
2022/10/02 11:24:26;;;;;;;11.05;2.20;;;17.30;99.90;;;;;;4991701;28;20086;-61
2022/10/02 11:27:15;;;;;;;11.82;2.58;;;17.40;99.90;;;;;;4961531;28;20061;-61
2022/10/02 11:30:10;;;;;;;8.38;2.63;;;17.30;99.90;;;;;;5000224;28;20528;-57
2022/10/02 11:33:00;;;;;;;12.40;2.85;;;17.40;99.90;;;;;;5005862;28;20042;-60
2022/10/02 11:35:47;;;;;;;15.75;2.72;;;17.40;99.90;;;;;;5010674;28;20037;-60
2022/10/02 11:38:25;;;;;;;12.73;2.20;;;17.40;99.90;;;;;;5025996;28;20400;-60
2022/10/02 11:41:12;;;;;;;12.38;2.40;;;17.30;99.90;;;;;;5011182;28;20400;-60
2022/10/02 11:44:21;;;;;;;10.60;2.38;;;17.30;99.90;;;;;;5010810;28;20046;-61
2022/10/02 11:47:11;;;;;;;7.85;1.88;;;17.20;99.90;;;;;;5003759;28;20100;-60
2022/10/02 11:50:00;;;;;;;7.32;2.08;;;17.10;99.90;;;;;;4989540;28;20045;-59
2022/10/02 11:52:44;;;;;;;12.70;2.60;;;16.70;99.90;;;;;;4990872;28;20081;-59
2022/10/02 11:55:51;;;;;;;13.60;2.47;;;16.70;99.90;;;;;;4999461;28;20039;-63
2022/10/02 11:58:40;;;;;;;12.52;2.13;;;16.60;99.90;;;;;;4989664;28;20050;-57
2022/10/02 12:01:31;;;;;;;11.35;2.65;;;16.70;99.90;;;;;;4989685;28;20069;-60
2022/10/02 12:03:57;;;;;;;7.75;1.95;;;17.00;99.90;;;;;;4989876;28;20511;-60
2022/10/02 12:06:41;;;;;;;11.27;2.08;;;17.20;99.90;;;;;;4995480;28;20041;-62
2022/10/02 12:09:25;;;;;;;13.18;2.25;;;17.30;99.90;;;;;;5010285;28;20042;-60
2022/10/02 12:11:59;;;;;;;10.35;2.20;;;17.30;99.60;;;;;;5007113;28;20066;-61
2022/10/02 12:14:43;;;;;;;11.20;2.25;;;17.70;99.70;;;;;;4989422;28;20393;-61
2022/10/02 12:17:15;;;;;;;8.45;2.00;;;17.90;99.60;;;;;;4989501;28;20041;-60
2022/10/02 12:29:39;;;;;;;12.35;2.33;;;17.70;99.40;;;;;;4984697;28;20078;-60
2022/10/02 12:32:28;;;;;;;11.57;3.70;;;18.00;99.70;;;;;;5005066;28;20064;-59
2022/10/02 12:35:36;;;;;;;12.52;2.92;;;17.80;99.80;;;;;;4990330;28;20045;-60
2022/10/02 12:38:33;;;;;;;14.63;3.17;;;17.40;99.90;;;;;;4970281;28;20132;-62
2022/10/02 12:41:17;;;;;;;13.88;2.70;;;17.10;99.90;;;;;;5021022;28;20061;-58
2022/10/02 12:44:07;;;;;;;11.90;2.67;;;16.90;99.90;;;;;;5005942;28;20397;-62
2022/10/02 12:46:58;;;;;;;14.85;2.40;;;17.00;99.90;;;;;;4985620;28;20050;-58
2022/10/02 12:50:05;;;;;;;12.43;2.83;;;16.80;99.90;;;;;;4981056;28;20457;-61
2022/10/02 12:52:43;;;;;;;13.80;2.83;;;16.80;99.90;;;;;;4983556;28;20070;-61
2022/10/02 12:55:14;;;;;;;13.13;3.00;;;17.00;99.90;;;;;;4983159;28;20038;-59
2022/10/02 12:57:53;;;;;;;15.68;3.53;;;17.40;99.90;;;;;;4985145;28;20118;-58
2022/10/02 13:00:40;;;;;;;11.82;3.35;;;17.60;99.90;;;;;;4991082;28;20101;-58
2022/10/02 13:03:11;;;;;;;11.98;2.85;;;17.90;99.90;;;;;;4987225;28;20400;-59
2022/10/02 13:05:45;;;;;;;18.67;3.40;;;18.00;99.70;;;;;;4990487;28;20506;-57
2022/10/02 13:08:47;;;;;;;11.95;2.70;;;18.00;99.70;;;;;;4990549;28;20039;-59
2022/10/02 13:11:28;;;;;;;11.77;3.00;;;18.20;99.10;;;;;;4987808;28;20042;-60
2022/10/02 13:14:37;;;;;;;10.63;2.60;;;18.30;99.00;;;;;;4993757;28;20030;-59
2022/10/02 13:17:29;;;;;;;19.50;3.83;;;18.10;98.90;;;;;;4998689;28;20117;-59
2022/10/02 13:20:19;;;;;;;12.45;3.53;;;17.80;98.50;;;;;;4990402;28;20046;-59
2022/10/02 13:22:51;;;;;;;8.27;2.78;;;17.70;98.80;;;;;;5005689;28;20050;-58
2022/10/02 13:25:26;;;;;;;10.20;2.35;;;17.70;98.70;;;;;;4977214;28;20153;-62
2022/10/02 13:27:59;;;;;;;15.93;2.47;;;17.50;99.20;;;;;;4997675;28;20038;-59
2022/10/02 13:30:32;;;;;;;17.27;3.10;;;17.40;99.50;;;;;;5000006;28;20050;-59
2022/10/02 13:33:36;;;;;;;14.30;3.10;;;17.00;99.90;;;;;;4992947;28;20034;-58
2022/10/02 13:36:18;;;;;;;12.05;3.20;;;16.80;99.90;;;;;;4976086;28;20367;-59
2022/10/02 13:39:24;;;;;;;13.23;2.60;;;16.60;99.90;;;;;;5000566;28;20073;-61
2022/10/02 13:42:09;;;;;;;14.13;2.58;;;16.40;99.90;;;;;;4989310;28;20386;-59
2022/10/02 13:44:45;;;;;;;18.85;2.80;;;16.20;99.90;;;;;;4992519;28;20042;-60
2022/10/02 13:47:42;;;;;;;10.88;2.80;;;16.10;99.90;;;;;;4996396;28;20305;-59
2022/10/02 13:50:20;;;;;;;10.77;2.00;;;16.10;99.90;;;;;;4984532;28;25758;-60
2022/10/02 13:53:13;;;;;;;10.48;2.33;;;16.40;99.90;;;;;;4989480;28;20038;-61
2022/10/02 13:55:45;;;;;;;13.52;2.92;;;16.50;99.90;;;;;;4994261;28;20042;-61
2022/10/02 13:58:43;;;;;;;12.55;2.83;;;16.60;99.90;;;;;;4997394;28;20437;-60
2022/10/02 14:01:20;;;;;;;10.55;2.55;;;16.70;99.90;;;;;;5001145;28;20050;-60
2022/10/02 14:04:18;;;;;;;11.82;2.72;;;16.80;99.90;;;;;;4988816;28;20046;-60
2022/10/02 14:06:52;;;;;;;8.60;2.45;;;16.80;99.90;;;;;;5009422;28;20083;-60
2022/10/02 14:09:36;;;;;;;13.25;2.50;;;16.70;99.90;;;;;;4993631;28;20122;-59